Time;durP1;ratioP1;P1;durP2;ratioP2;P2;SDS_P1;SDS_P2;PMS_P1;PMS_P2;Temp;Humidity;BMP_temperature;BMP_pressure;BME280_temperature;BME280_humidity;BME280_pressure;Samples;Min_cycle;Max_cycle;Signal;HPM_P1;HPM_P2
2021/03/15 00:01:50;;;;;;;3.25;0.73;;;21.20;35.40;;;;;;5092453;28;20047;-82
2021/03/15 00:04:16;;;;;;;4.82;0.90;;;21.20;35.40;;;;;;5090966;28;20037;-79
2021/03/15 00:06:41;;;;;;;3.65;1.27;;;21.20;36.10;;;;;;5092909;28;20050;-78
2021/03/15 00:09:07;;;;;;;6.95;1.05;;;21.20;35.60;;;;;;5091556;28;20081;-73
2021/03/15 00:11:33;;;;;;;3.15;1.40;;;21.10;35.60;;;;;;5091953;28;20045;-74
2021/03/15 00:13:58;;;;;;;5.53;1.23;;;21.10;35.60;;;;;;5093975;28;20039;-80
2021/03/15 00:16:24;;;;;;;5.22;1.02;;;21.10;35.80;;;;;;5100624;28;20488;-80
2021/03/15 00:18:50;;;;;;;4.32;1.33;;;21.10;35.90;;;;;;5102338;28;20059;-80
2021/03/15 00:21:15;;;;;;;3.30;1.15;;;21.10;35.80;;;;;;5092290;28;20069;-73
2021/03/15 00:23:53;;;;;;;0.52;0.32;;;21.10;35.90;;;;;;5090476;28;20099;-73
2021/03/15 00:26:18;;;;;;;4.57;1.30;;;21.10;36.00;;;;;;5079266;28;20034;-73
2021/03/15 00:28:44;;;;;;;4.35;1.40;;;21.00;35.90;;;;;;5087557;28;20028;-72
2021/03/15 00:31:10;;;;;;;7.22;1.65;;;21.10;35.90;;;;;;5073215;28;20040;-74
2021/03/15 00:33:35;;;;;;;8.50;1.50;;;21.00;35.90;;;;;;5092623;28;20488;-80
2021/03/15 00:36:01;;;;;;;6.07;1.30;;;20.90;36.00;;;;;;5091343;28;20467;-81
2021/03/15 00:38:27;;;;;;;4.30;1.27;;;20.90;36.00;;;;;;5092247;28;20020;-81
2021/03/15 00:40:52;;;;;;;1.60;0.75;;;21.00;36.10;;;;;;5091347;28;20107;-83
2021/03/15 00:43:18;;;;;;;2.42;0.90;;;20.90;36.20;;;;;;5093088;28;20106;-83
2021/03/15 00:45:44;;;;;;;7.38;1.60;;;20.90;36.20;;;;;;5092198;28;20028;-80
2021/03/15 00:48:10;;;;;;;4.28;1.60;;;20.90;36.30;;;;;;5089640;28;20017;-79
2021/03/15 00:50:42;;;;;;;4.78;1.48;;;20.90;36.30;;;;;;5091741;28;20115;-79
2021/03/15 00:53:11;;;;;;;1.90;0.90;;;20.90;36.30;;;;;;5075576;28;20027;-80
2021/03/15 00:59:03;;;;;;;3.38;1.20;;;20.80;36.40;;;;;;5092452;28;20032;-80
2021/03/15 01:01:29;;;;;;;6.10;1.67;;;20.80;37.10;;;;;;5071371;28;20461;-80
2021/03/15 01:03:54;;;;;;;5.30;1.88;;;20.80;36.50;;;;;;5085490;28;20183;-80
2021/03/15 01:06:20;;;;;;;8.18;2.00;;;20.80;36.60;;;;;;5092466;28;20027;-80
2021/03/15 01:08:45;;;;;;;3.38;0.75;;;20.80;36.60;;;;;;5091169;28;20035;-80
2021/03/15 01:11:11;;;;;;;4.65;0.57;;;20.80;36.60;;;;;;5091780;28;20511;-79
2021/03/15 01:13:37;;;;;;;7.93;1.45;;;20.80;36.20;;;;;;5091438;28;20501;-80
2021/03/15 01:16:03;;;;;;;7.03;1.80;;;20.80;36.80;;;;;;5090654;28;20024;-80
2021/03/15 01:18:31;;;;;;;2.15;0.88;;;20.80;36.80;;;;;;5090983;28;20027;-80
2021/03/15 01:20:57;;;;;;;5.03;1.73;;;20.70;36.80;;;;;;5090035;28;20564;-80
2021/03/15 01:23:23;;;;;;;4.03;1.42;;;20.70;36.80;;;;;;5051587;28;20036;-81
2021/03/15 01:25:52;;;;;;;2.85;1.30;;;20.70;36.80;;;;;;5057449;28;20115;-80
2021/03/15 01:28:18;;;;;;;5.00;1.63;;;20.70;36.80;;;;;;5057236;28;20515;-80
2021/03/15 01:30:44;;;;;;;4.93;1.85;;;20.80;36.90;;;;;;5090922;28;20050;-80
2021/03/15 01:33:10;;;;;;;6.65;1.48;;;20.70;36.80;;;;;;5090609;28;20028;-77
2021/03/15 01:35:35;;;;;;;4.38;1.15;;;20.80;36.90;;;;;;5092143;28;20124;-77
2021/03/15 01:38:02;;;;;;;3.40;1.60;;;20.80;36.90;;;;;;5073313;28;20036;-80
2021/03/15 01:40:28;;;;;;;4.65;1.20;;;20.80;36.90;;;;;;5072221;28;20032;-81
2021/03/15 01:42:53;;;;;;;6.97;1.67;;;20.80;37.00;;;;;;5094392;28;20040;-81
2021/03/15 01:45:19;;;;;;;2.53;1.20;;;20.80;37.60;;;;;;5058167;28;20036;-81
2021/03/15 01:47:45;;;;;;;5.18;1.63;;;20.80;37.00;;;;;;5095541;28;20479;-81
2021/03/15 01:50:14;;;;;;;2.90;1.42;;;20.80;37.00;;;;;;5094519;28;20032;-81
2021/03/15 01:52:40;;;;;;;1.48;0.88;;;20.80;37.00;;;;;;5094991;28;20419;-82
2021/03/15 01:55:07;;;;;;;3.13;1.30;;;20.80;37.00;;;;;;5095909;28;20504;-82
2021/03/15 01:57:33;;;;;;;1.10;0.70;;;20.80;37.00;;;;;;5077811;28;20036;-84
2021/03/15 01:59:58;;;;;;;4.88;1.75;;;20.80;37.00;;;;;;5093861;28;20073;-73
2021/03/15 02:02:30;;;;;;;4.90;1.70;;;20.80;37.00;;;;;;5093332;28;20372;-73
2021/03/15 02:04:56;;;;;;;4.18;1.83;;;20.80;37.00;;;;;;5095118;28;20036;-73
2021/03/15 02:07:24;;;;;;;3.65;1.40;;;20.80;37.00;;;;;;5093376;28;20024;-73
2021/03/15 02:09:51;;;;;;;3.83;1.52;;;20.80;37.00;;;;;;5078718;28;20043;-73
2021/03/15 02:12:35;;;;;;;2.92;1.48;;;20.80;37.00;;;;;;5093202;28;20016;-73
2021/03/15 02:15:11;;;;;;;5.43;1.65;;;20.70;37.10;;;;;;5088281;28;20510;-73
2021/03/15 02:18:16;;;;;;;6.18;1.60;;;20.80;37.10;;;;;;5094276;28;20013;-73
2021/03/15 02:21:16;;;;;;;3.72;1.40;;;20.70;37.10;;;;;;5007048;28;20129;-73
2021/03/15 02:23:54;;;;;;;4.32;1.58;;;20.80;37.10;;;;;;4994613;28;20034;-73
2021/03/15 02:26:57;;;;;;;3.38;1.80;;;20.70;37.10;;;;;;5004492;28;20033;-73
2021/03/15 02:29:25;;;;;;;4.72;1.50;;;20.70;37.10;;;;;;5001359;28;20034;-73
2021/03/15 02:32:03;;;;;;;4.95;1.83;;;20.70;37.10;;;;;;4993972;28;20506;-73
2021/03/15 02:34:53;;;;;;;6.97;1.90;;;20.70;37.20;;;;;;4999094;28;20509;-74
2021/03/15 02:37:20;;;;;;;5.85;1.63;;;20.70;37.20;;;;;;5007025;28;20802;-75
2021/03/15 02:39:51;;;;;;;2.85;1.95;;;20.70;37.20;;;;;;4979535;28;20042;-75
2021/03/15 02:42:18;;;;;;;5.03;1.52;;;20.70;37.30;;;;;;4994051;28;20042;-74
2021/03/15 02:44:47;;;;;;;6.30;1.77;;;20.70;37.20;;;;;;5008392;28;20171;-74
2021/03/15 02:47:17;;;;;;;4.70;1.48;;;20.70;37.30;;;;;;4962801;28;20038;-74
2021/03/15 02:49:42;;;;;;;5.97;1.75;;;20.70;37.30;;;;;;4975099;28;20034;-82
2021/03/15 02:52:08;;;;;;;6.85;2.08;;;20.70;37.30;;;;;;4983539;28;20037;-82
2021/03/15 02:54:34;;;;;;;3.78;1.55;;;20.70;37.30;;;;;;4984409;28;20461;-83
2021/03/15 02:57:00;;;;;;;5.93;2.30;;;20.70;37.30;;;;;;5015792;28;20052;-82
2021/03/15 02:59:25;;;;;;;4.88;2.20;;;20.70;37.30;;;;;;5075782;28;20027;-82
2021/03/15 03:01:51;;;;;;;8.25;2.15;;;20.70;37.30;;;;;;5089393;28;20101;-75
2021/03/15 03:04:17;;;;;;;6.15;2.15;;;20.70;37.30;;;;;;5075709;28;20570;-74
2021/03/15 03:06:43;;;;;;;4.35;2.10;;;20.70;37.40;;;;;;5059312;28;20054;-74
2021/03/15 03:09:11;;;;;;;4.82;1.63;;;20.60;37.30;;;;;;5092647;28;20024;-74
2021/03/15 03:11:37;;;;;;;3.90;1.67;;;20.60;37.40;;;;;;5076157;28;20488;-74
2021/03/15 03:14:02;;;;;;;2.05;0.93;;;20.60;37.40;;;;;;5092615;28;20062;-74
2021/03/15 03:16:34;;;;;;;4.13;1.75;;;20.60;37.40;;;;;;5092563;28;20046;-74
2021/03/15 03:19:03;;;;;;;3.47;1.58;;;20.60;37.40;;;;;;5076588;28;20056;-73
2021/03/15 03:21:29;;;;;;;2.70;1.83;;;20.60;37.40;;;;;;5092270;28;20043;-74
2021/03/15 03:23:56;;;;;;;6.18;1.90;;;20.60;38.00;;;;;;5092363;28;20028;-74
2021/03/15 03:26:26;;;;;;;4.75;1.90;;;20.60;37.40;;;;;;5092020;28;20038;-74
2021/03/15 03:28:53;;;;;;;5.45;1.90;;;20.60;37.40;;;;;;5075784;28;20020;-74
2021/03/15 03:31:19;;;;;;;2.45;1.50;;;20.60;37.40;;;;;;5076274;28;20027;-74
2021/03/15 03:33:44;;;;;;;5.13;1.85;;;20.70;37.40;;;;;;5083364;28;20020;-74
2021/03/15 03:36:10;;;;;;;3.03;1.73;;;20.70;37.40;;;;;;5061201;28;20044;-73
2021/03/15 03:38:36;;;;;;;5.43;2.20;;;20.70;37.50;;;;;;5074527;28;20032;-73
2021/03/15 03:41:01;;;;;;;4.10;1.23;;;20.70;37.40;;;;;;5092893;28;20032;-74
2021/03/15 03:43:27;;;;;;;3.53;1.80;;;20.70;37.40;;;;;;5080439;28;20112;-74
2021/03/15 03:45:52;;;;;;;1.73;1.50;;;20.60;37.30;;;;;;5087432;28;20075;-74
2021/03/15 03:48:18;;;;;;;1.70;1.23;;;20.60;37.40;;;;;;5092591;28;20032;-73
2021/03/15 03:50:43;;;;;;;3.53;1.67;;;20.60;37.40;;;;;;5091886;28;20380;-75
2021/03/15 03:53:10;;;;;;;4.45;1.90;;;20.60;37.50;;;;;;5076030;28;20024;-75
2021/03/15 03:55:57;;;;;;;4.00;2.20;;;20.60;37.50;;;;;;5092049;28;20035;-75
2021/03/15 03:58:23;;;;;;;3.28;1.80;;;20.60;37.50;;;;;;5091066;28;20047;-75
2021/03/15 04:00:51;;;;;;;3.47;1.75;;;20.60;37.50;;;;;;5074623;28;20071;-75
2021/03/15 04:03:17;;;;;;;5.05;2.25;;;20.60;37.50;;;;;;5074811;28;20110;-74
2021/03/15 04:05:55;;;;;;;5.95;2.38;;;20.60;37.50;;;;;;5071937;28;20037;-74
2021/03/15 04:08:28;;;;;;;5.05;2.35;;;20.60;37.60;;;;;;5091248;28;20028;-74
2021/03/15 04:10:55;;;;;;;4.82;2.28;;;20.60;37.60;;;;;;5085255;28;20016;-74
2021/03/15 04:13:23;;;;;;;5.68;2.60;;;20.60;37.60;;;;;;5074358;28;20063;-74
2021/03/15 04:16:02;;;;;;;1.95;0.65;;;20.60;37.60;;;;;;5090108;28;20399;-76
2021/03/15 04:18:27;;;;;;;2.50;2.03;;;20.60;37.60;;;;;;5059687;28;20112;-76
2021/03/15 04:20:57;;;;;;;5.28;1.02;;;20.60;37.60;;;;;;5090898;28;20555;-76
2021/03/15 04:23:26;;;;;;;4.22;2.40;;;20.60;37.60;;;;;;5091567;28;20433;-76
2021/03/15 04:25:51;;;;;;;2.42;1.27;;;20.50;38.30;;;;;;5055206;28;20036;-74
2021/03/15 04:28:25;;;;;;;6.93;2.53;;;20.50;37.70;;;;;;5072653;28;20556;-74
2021/03/15 04:30:51;;;;;;;4.63;2.03;;;20.50;37.60;;;;;;5074813;28;20046;-74
2021/03/15 04:33:16;;;;;;;4.63;1.90;;;20.50;37.60;;;;;;5094148;28;20372;-74
2021/03/15 04:35:45;;;;;;;4.05;2.10;;;20.50;37.70;;;;;;5074961;28;20144;-74
2021/03/15 04:38:11;;;;;;;3.55;1.63;;;20.50;37.70;;;;;;5073735;28;20060;-75
2021/03/15 04:40:37;;;;;;;4.97;2.10;;;20.50;37.70;;;;;;5083001;28;20048;-75
2021/03/15 04:43:03;;;;;;;3.22;1.70;;;20.50;38.40;;;;;;5107877;28;20028;-75
2021/03/15 04:45:32;;;;;;;3.83;2.35;;;20.50;37.70;;;;;;5058029;28;20380;-75
2021/03/15 04:48:02;;;;;;;3.40;2.30;;;20.50;37.80;;;;;;5090678;28;20028;-75
2021/03/15 04:50:28;;;;;;;4.97;2.13;;;20.40;37.80;;;;;;5091447;28;20020;-74
2021/03/15 04:52:54;;;;;;;1.20;0.40;;;20.50;37.70;;;;;;5074434;28;20043;-75
2021/03/15 04:55:20;;;;;;;3.75;1.92;;;20.40;37.70;;;;;;5073980;28;20495;-75
2021/03/15 04:57:48;;;;;;;4.95;1.90;;;20.40;37.70;;;;;;5091502;28;20102;-74
2021/03/15 05:00:14;;;;;;;3.20;2.22;;;20.40;37.70;;;;;;5074066;28;20024;-75
2021/03/15 05:02:42;;;;;;;0.15;0.15;;;20.40;37.70;;;;;;5090816;28;20028;-74
2021/03/15 05:05:08;;;;;;;0.10;0.10;;;20.40;37.70;;;;;;5090992;28;20028;-75
2021/03/15 05:07:34;;;;;;;0.30;0.28;;;20.50;37.80;;;;;;5056810;28;20069;-75
2021/03/15 05:10:03;;;;;;;0.63;0.22;;;20.50;37.70;;;;;;5090501;28;20028;-76
2021/03/15 05:12:29;;;;;;;1.30;0.47;;;20.60;37.70;;;;;;5090053;28;20035;-75
2021/03/15 05:14:57;;;;;;;0.00;0.00;;;20.70;37.60;;;;;;5053539;28;20040;-75
2021/03/15 05:17:29;;;;;;;0.43;0.30;;;20.70;37.40;;;;;;5090800;28;20036;-74
2021/03/15 05:19:54;;;;;;;0.45;0.45;;;20.90;37.30;;;;;;5054042;28;20036;-75
2021/03/15 05:22:20;;;;;;;0.32;0.10;;;21.00;37.10;;;;;;5073127;28;20123;-74
2021/03/15 05:24:52;;;;;;;0.75;0.10;;;21.10;37.00;;;;;;5090313;28;20070;-74
2021/03/15 05:27:17;;;;;;;0.40;0.30;;;21.20;36.80;;;;;;5089471;28;20062;-74
2021/03/15 05:30:04;;;;;;;0.03;0.03;;;21.30;36.60;;;;;;5073192;28;20051;-73
2021/03/15 05:32:29;;;;;;;3.22;0.50;;;21.40;36.50;;;;;;5090727;28;20016;-73
2021/03/15 05:34:55;;;;;;;1.50;0.60;;;21.40;36.30;;;;;;5081423;28;20415;-74
2021/03/15 05:37:21;;;;;;;0.38;0.20;;;21.50;36.30;;;;;;5073094;28;20079;-74
2021/03/15 05:39:47;;;;;;;0.47;0.43;;;21.50;36.10;;;;;;5089643;28;20036;-73
2021/03/15 05:42:25;;;;;;;0.52;0.13;;;21.60;36.60;;;;;;5090282;28;20035;-74
2021/03/15 05:45:21;;;;;;;0.00;0.00;;;21.70;35.90;;;;;;5089878;28;20028;-73
2021/03/15 05:48:08;;;;;;;0.20;0.20;;;21.70;35.80;;;;;;5088103;28;20036;-73
2021/03/15 05:51:11;;;;;;;0.30;0.20;;;21.70;35.70;;;;;;5091241;28;20051;-73
2021/03/15 05:53:46;;;;;;;0.15;0.15;;;21.70;35.60;;;;;;5077806;28;20139;-74
2021/03/15 05:56:30;;;;;;;0.85;0.20;;;21.80;35.60;;;;;;5089685;28;20024;-74
2021/03/15 05:59:11;;;;;;;3.60;0.60;;;21.80;35.60;;;;;;5105253;28;20445;-74
2021/03/15 06:01:51;;;;;;;0.75;0.32;;;21.80;35.50;;;;;;5072851;28;20130;-75
2021/03/15 06:04:36;;;;;;;0.45;0.15;;;21.80;35.50;;;;;;5092745;28;20025;-76
2021/03/15 06:07:02;;;;;;;0.40;0.15;;;21.80;35.40;;;;;;5090646;28;20030;-73
2021/03/15 06:12:54;;;;;;;0.20;0.15;;;21.90;35.40;;;;;;5093227;28;20031;-74
2021/03/15 06:18:32;;;;;;;0.17;0.17;;;21.90;35.40;;;;;;5005165;28;20082;-75
2021/03/15 06:20:58;;;;;;;0.30;0.10;;;21.90;35.40;;;;;;5096944;28;20028;-75
2021/03/15 06:23:24;;;;;;;0.65;0.20;;;21.90;35.30;;;;;;5093919;28;20075;-75
2021/03/15 06:25:59;;;;;;;1.13;0.30;;;22.00;35.30;;;;;;5075845;28;20407;-74
2021/03/15 06:28:25;;;;;;;4.70;0.30;;;22.10;35.20;;;;;;5089388;28;20032;-82
2021/03/15 06:30:52;;;;;;;0.20;0.20;;;22.10;35.00;;;;;;5094363;28;20035;-77
2021/03/15 06:33:18;;;;;;;0.25;0.25;;;22.20;34.80;;;;;;5094239;28;20020;-77
2021/03/15 06:35:54;;;;;;;1.95;0.32;;;22.30;34.80;;;;;;5074718;28;20664;-76
2021/03/15 06:38:20;;;;;;;6.55;0.45;;;22.30;34.70;;;;;;5087141;28;20035;-84
2021/03/15 06:40:45;;;;;;;0.20;0.20;;;22.30;34.60;;;;;;5076078;28;20032;-80
2021/03/15 06:43:15;;;;;;;0.28;0.22;;;22.40;34.60;;;;;;5075488;28;20036;-81
2021/03/15 06:45:45;;;;;;;0.10;0.10;;;22.40;34.40;;;;;;5089482;28;20032;-82
2021/03/15 06:48:10;;;;;;;0.30;0.22;;;22.50;34.40;;;;;;5076141;28;20432;-75
2021/03/15 06:50:36;;;;;;;0.52;0.30;;;22.50;34.30;;;;;;5093989;28;20085;-76
2021/03/15 06:53:02;;;;;;;0.40;0.25;;;22.50;34.20;;;;;;5076550;28;20067;-76
2021/03/15 06:55:31;;;;;;;0.43;0.43;;;22.50;34.10;;;;;;5095136;28;20113;-76
2021/03/15 06:58:28;;;;;;;0.17;0.17;;;22.60;34.10;;;;;;5093596;28;20024;-76
2021/03/15 07:01:10;;;;;;;0.85;0.20;;;22.60;34.00;;;;;;5103294;28;20040;-81
2021/03/15 07:03:39;;;;;;;0.30;0.22;;;22.70;33.90;;;;;;5093840;28;20503;-81
2021/03/15 07:06:05;;;;;;;1.63;0.38;;;22.70;33.80;;;;;;5094040;28;20442;-74
2021/03/15 07:08:31;;;;;;;0.25;0.25;;;22.70;33.80;;;;;;5092458;28;20047;-76
2021/03/15 07:11:00;;;;;;;0.10;0.10;;;22.80;33.80;;;;;;5097427;28;20558;-76
2021/03/15 07:13:27;;;;;;;0.50;0.20;;;22.80;33.70;;;;;;5093641;28;20055;-76
2021/03/15 07:15:55;;;;;;;0.60;0.30;;;22.80;33.70;;;;;;5074871;28;20515;-76
2021/03/15 07:18:22;;;;;;;0.10;0.10;;;22.80;33.60;;;;;;5088719;28;20032;-76
2021/03/15 07:21:02;;;;;;;0.05;0.05;;;22.80;33.60;;;;;;5082963;28;20392;-76
2021/03/15 07:23:42;;;;;;;0.17;0.17;;;22.80;33.60;;;;;;5077129;28;20024;-76
2021/03/15 07:26:17;;;;;;;0.35;0.35;;;22.90;33.70;;;;;;5083205;28;20040;-76
2021/03/15 07:28:44;;;;;;;0.60;0.52;;;22.90;33.60;;;;;;5093356;28;20131;-76
2021/03/15 07:31:23;;;;;;;1.27;0.30;;;22.90;33.50;;;;;;5080223;28;20032;-76
2021/03/15 07:33:55;;;;;;;0.10;0.10;;;23.00;33.50;;;;;;5085785;28;20024;-83
2021/03/15 07:36:27;;;;;;;0.85;0.30;;;23.00;33.40;;;;;;5088308;28;20050;-83
2021/03/15 07:38:53;;;;;;;0.25;0.20;;;23.00;33.40;;;;;;5089787;28;20110;-83
2021/03/15 07:41:20;;;;;;;0.40;0.40;;;23.00;33.40;;;;;;5093642;28;20024;-82
2021/03/15 07:43:49;;;;;;;0.40;0.17;;;23.00;33.30;;;;;;5092279;28;20035;-82
2021/03/15 07:46:28;;;;;;;0.45;0.20;;;23.00;33.30;;;;;;5059000;28;20037;-83
2021/03/15 07:48:54;;;;;;;0.20;0.15;;;23.00;33.20;;;;;;5092031;28;20050;-82
2021/03/15 07:51:30;;;;;;;0.63;0.15;;;23.10;33.30;;;;;;5074540;28;20593;-83
2021/03/15 07:54:09;;;;;;;0.38;0.35;;;23.10;33.20;;;;;;5058677;28;20039;-84
2021/03/15 07:56:35;;;;;;;0.70;0.20;;;23.10;33.20;;;;;;5056577;28;20031;-83
2021/03/15 07:59:00;;;;;;;2.47;0.22;;;23.10;33.10;;;;;;5094523;28;20024;-83
2021/03/15 08:01:26;;;;;;;0.40;0.20;;;23.10;33.10;;;;;;5091184;28;20080;-82
2021/03/15 08:03:52;;;;;;;0.10;0.10;;;23.20;33.20;;;;;;5074403;28;20021;-82
2021/03/15 08:06:18;;;;;;;0.28;0.10;;;23.20;33.80;;;;;;5091126;28;20063;-82
2021/03/15 08:08:44;;;;;;;3.28;0.20;;;23.20;33.10;;;;;;5090487;28;20034;-82
2021/03/15 08:11:11;;;;;;;0.17;0.17;;;23.20;33.10;;;;;;5085741;28;20099;-82
2021/03/15 08:13:43;;;;;;;0.10;0.05;;;23.20;33.10;;;;;;5092104;28;20027;-82
2021/03/15 08:16:08;;;;;;;0.20;0.20;;;23.30;33.10;;;;;;5075136;28;20133;-77
2021/03/15 08:18:34;;;;;;;0.80;0.43;;;23.30;33.10;;;;;;5090424;28;20121;-75
2021/03/15 08:21:11;;;;;;;1.25;0.40;;;23.30;33.70;;;;;;5062070;28;20047;-75
2021/03/15 08:23:43;;;;;;;0.52;0.20;;;23.30;33.00;;;;;;5088226;28;20028;-75
2021/03/15 08:26:10;;;;;;;0.30;0.30;;;23.30;33.00;;;;;;5072781;28;20169;-75
2021/03/15 08:28:37;;;;;;;0.30;0.30;;;23.40;33.00;;;;;;5088429;28;20032;-75
2021/03/15 08:31:07;;;;;;;0.30;0.30;;;23.40;33.00;;;;;;5059696;28;20115;-75
2021/03/15 08:33:32;;;;;;;0.40;0.32;;;23.40;33.00;;;;;;5093512;27;20032;-75
2021/03/15 08:35:58;;;;;;;0.15;0.15;;;23.40;32.90;;;;;;5069544;28;20044;-76
2021/03/15 08:38:34;;;;;;;0.17;0.17;;;23.40;33.60;;;;;;5070744;28;20035;-75
2021/03/15 08:41:04;;;;;;;0.98;0.30;;;23.50;33.00;;;;;;5085298;28;20122;-75
2021/03/15 08:43:31;;;;;;;0.52;0.45;;;23.50;32.90;;;;;;5096210;28;20064;-75
2021/03/15 08:46:10;;;;;;;0.20;0.20;;;23.50;33.50;;;;;;5075543;28;20111;-75
2021/03/15 08:48:38;;;;;;;1.33;0.32;;;23.50;32.90;;;;;;5075709;28;20031;-74
2021/03/15 08:51:07;;;;;;;0.10;0.10;;;23.50;32.90;;;;;;5092233;28;20031;-75
2021/03/15 08:53:44;;;;;;;0.85;0.20;;;23.50;32.90;;;;;;5101853;28;20135;-76
2021/03/15 08:56:22;;;;;;;0.22;0.20;;;23.60;32.80;;;;;;5087825;28;20506;-76
2021/03/15 08:58:50;;;;;;;0.08;0.08;;;23.60;32.80;;;;;;5087016;28;20024;-76
2021/03/15 09:01:17;;;;;;;0.10;0.10;;;23.60;32.80;;;;;;5061933;28;20036;-76
2021/03/15 09:03:48;;;;;;;0.28;0.10;;;23.60;32.80;;;;;;5079778;28;20081;-75
2021/03/15 09:06:15;;;;;;;0.22;0.22;;;23.60;32.80;;;;;;5086596;28;20368;-75
2021/03/15 09:09:00;;;;;;;0.20;0.20;;;23.60;32.80;;;;;;5070731;28;20522;-74
2021/03/15 09:11:34;;;;;;;0.10;0.10;;;23.60;32.80;;;;;;5093527;28;20043;-75
2021/03/15 09:16:52;;;;;;;0.10;0.10;;;23.60;32.80;;;;;;5080679;28;20418;-74
2021/03/15 09:19:19;;;;;;;1.08;0.15;;;23.60;32.80;;;;;;5070398;28;20044;-75
2021/03/15 09:21:46;;;;;;;0.10;0.10;;;23.60;32.80;;;;;;5082582;28;20032;-75
2021/03/15 09:24:38;;;;;;;0.88;0.30;;;23.70;32.70;;;;;;5090314;28;20576;-74
2021/03/15 09:27:05;;;;;;;2.17;0.38;;;23.70;32.70;;;;;;5085537;28;20024;-74
2021/03/15 09:29:31;;;;;;;0.22;0.20;;;23.70;32.60;;;;;;5079781;28;20033;-75
2021/03/15 09:32:09;;;;;;;0.20;0.20;;;23.80;32.60;;;;;;5079259;28;20042;-74
2021/03/15 09:34:35;;;;;;;1.95;0.20;;;23.80;33.20;;;;;;5073535;28;20040;-74
2021/03/15 09:37:02;;;;;;;0.60;0.30;;;23.80;32.50;;;;;;5082180;28;20495;-74
2021/03/15 09:39:29;;;;;;;0.32;0.30;;;23.80;32.50;;;;;;5073446;28;20043;-75
2021/03/15 09:41:55;;;;;;;0.73;0.20;;;23.90;32.50;;;;;;5088880;28;20025;-75
2021/03/15 09:44:31;;;;;;;0.75;0.50;;;23.90;33.10;;;;;;5084668;28;20032;-75
2021/03/15 09:46:57;;;;;;;2.08;0.20;;;24.00;32.40;;;;;;5081431;28;20107;-75
2021/03/15 09:49:38;;;;;;;1.83;0.20;;;24.00;32.30;;;;;;5084556;28;20104;-75
2021/03/15 09:52:23;;;;;;;0.45;0.20;;;24.00;32.20;;;;;;5088445;28;20096;-75
2021/03/15 09:54:50;;;;;;;0.00;0.00;;;24.00;32.20;;;;;;5086894;28;20106;-75
2021/03/15 09:57:17;;;;;;;1.02;0.30;;;24.10;32.10;;;;;;5090049;28;20067;-75
2021/03/15 09:59:42;;;;;;;0.20;0.20;;;24.10;32.00;;;;;;5077707;28;20091;-75
2021/03/15 10:02:08;;;;;;;0.20;0.20;;;24.20;32.00;;;;;;5085269;28;20654;-75
2021/03/15 10:04:37;;;;;;;0.10;0.10;;;24.20;32.00;;;;;;5087010;28;20074;-75
2021/03/15 10:07:08;;;;;;;0.82;0.55;;;24.30;31.90;;;;;;5089765;28;20032;-75
2021/03/15 10:09:38;;;;;;;3.33;0.32;;;24.30;31.90;;;;;;5091472;28;20107;-75
2021/03/15 10:12:04;;;;;;;0.57;0.30;;;24.30;31.80;;;;;;5087414;28;20032;-75
2021/03/15 10:14:29;;;;;;;0.45;0.13;;;24.30;31.80;;;;;;5086394;28;20036;-75
2021/03/15 10:17:29;;;;;;;1.67;0.25;;;24.30;31.80;;;;;;5084106;28;20030;-75
2021/03/15 10:19:55;;;;;;;0.30;0.20;;;24.30;31.70;;;;;;5078386;28;20107;-75
2021/03/15 10:22:21;;;;;;;0.35;0.35;;;24.40;32.40;;;;;;5085615;28;20131;-75
2021/03/15 10:24:48;;;;;;;0.03;0.03;;;24.40;32.40;;;;;;5091412;28;20488;-75
2021/03/15 10:27:23;;;;;;;0.57;0.22;;;24.40;31.80;;;;;;5060121;28;20031;-75
2021/03/15 10:29:53;;;;;;;1.38;0.10;;;24.40;32.40;;;;;;5094007;28;20028;-76
2021/03/15 10:32:20;;;;;;;0.20;0.20;;;24.30;32.50;;;;;;5072235;28;20020;-76
2021/03/15 10:34:54;;;;;;;2.42;0.20;;;24.30;31.80;;;;;;5075682;28;20031;-76
2021/03/15 10:37:20;;;;;;;0.10;0.10;;;24.40;31.90;;;;;;5092764;28;20444;-76
2021/03/15 10:39:48;;;;;;;0.75;0.40;;;24.40;32.00;;;;;;5094209;28;20063;-76
2021/03/15 10:42:13;;;;;;;0.45;0.30;;;24.40;31.90;;;;;;5093016;28;20110;-76
2021/03/15 10:44:39;;;;;;;0.15;0.15;;;24.40;31.90;;;;;;5076596;28;20621;-75
2021/03/15 10:47:04;;;;;;;0.25;0.20;;;24.40;31.90;;;;;;5079989;28;20024;-75
2021/03/15 10:49:31;;;;;;;0.10;0.10;;;24.40;31.80;;;;;;5076484;28;20044;-75
2021/03/15 10:51:57;;;;;;;0.38;0.20;;;24.40;31.80;;;;;;5075986;28;20139;-75
2021/03/15 10:54:40;;;;;;;0.17;0.10;;;24.40;31.80;;;;;;5095236;28;20535;-75
2021/03/15 10:57:13;;;;;;;0.00;0.00;;;24.50;31.70;;;;;;5072464;28;20047;-75
2021/03/15 10:59:39;;;;;;;4.28;0.38;;;24.50;31.60;;;;;;5093369;28;20111;-80
2021/03/15 11:02:05;;;;;;;2.55;0.80;;;24.50;31.60;;;;;;5091515;28;20070;-79
2021/03/15 11:04:40;;;;;;;1.17;0.52;;;24.60;31.60;;;;;;5064464;28;20102;-75
2021/03/15 11:07:26;;;;;;;0.20;0.20;;;24.60;31.60;;;;;;5087368;28;20039;-75
2021/03/15 11:09:56;;;;;;;0.55;0.22;;;24.60;31.50;;;;;;5075308;28;20028;-75
2021/03/15 11:12:41;;;;;;;0.95;0.30;;;24.60;31.40;;;;;;5075346;28;20021;-75
2021/03/15 11:15:14;;;;;;;0.93;0.43;;;24.60;31.40;;;;;;5080345;28;20024;-75
2021/03/15 11:17:40;;;;;;;0.75;0.30;;;24.70;31.40;;;;;;5064972;28;20040;-75
2021/03/15 11:20:08;;;;;;;0.25;0.20;;;24.70;31.40;;;;;;5082197;28;20408;-80
2021/03/15 11:22:52;;;;;;;0.20;0.20;;;24.70;31.30;;;;;;5067931;28;20028;-80
2021/03/15 11:25:23;;;;;;;0.10;0.10;;;24.70;31.30;;;;;;5089593;28;20404;-79
2021/03/15 11:27:49;;;;;;;1.33;0.10;;;24.80;31.30;;;;;;5088039;28;20016;-80
2021/03/15 11:30:27;;;;;;;0.17;0.15;;;24.80;31.30;;;;;;5092151;28;20515;-80
2021/03/15 11:33:00;;;;;;;0.25;0.25;;;24.80;31.20;;;;;;5091536;28;20035;-81
2021/03/15 11:35:25;;;;;;;0.88;0.20;;;24.80;31.10;;;;;;5090432;28;20142;-80
2021/03/15 11:37:51;;;;;;;0.40;0.30;;;24.80;31.80;;;;;;5092149;28;20095;-80
2021/03/15 11:40:27;;;;;;;0.93;0.20;;;24.80;31.00;;;;;;5091980;28;20510;-80
2021/03/15 11:42:54;;;;;;;0.57;0.20;;;24.90;30.90;;;;;;5093328;28;20020;-80
2021/03/15 11:45:20;;;;;;;0.60;0.30;;;24.90;30.80;;;;;;5090095;28;20065;-80
2021/03/15 11:47:45;;;;;;;0.45;0.20;;;24.80;30.80;;;;;;5090929;28;20028;-79
2021/03/15 11:50:11;;;;;;;0.10;0.10;;;24.90;30.80;;;;;;5083292;28;20024;-79
2021/03/15 11:52:39;;;;;;;2.63;0.38;;;24.90;30.80;;;;;;5083579;28;20031;-80
2021/03/15 11:58:26;;;;;;;0.80;0.20;;;24.90;30.70;;;;;;5089819;28;20034;-80
2021/03/15 12:00:52;;;;;;;0.93;0.30;;;24.90;30.70;;;;;;5083636;28;20411;-79
2021/03/15 12:03:17;;;;;;;0.80;0.40;;;25.00;30.80;;;;;;5074451;28;20070;-79
2021/03/15 12:05:43;;;;;;;0.20;0.13;;;25.00;30.80;;;;;;5067522;28;20467;-79
2021/03/15 12:08:09;;;;;;;0.43;0.43;;;25.00;30.80;;;;;;5082206;28;20035;-79
2021/03/15 12:10:34;;;;;;;0.17;0.10;;;25.00;30.70;;;;;;5081594;28;20442;-79
2021/03/15 12:13:00;;;;;;;0.40;0.40;;;25.00;30.60;;;;;;5083575;28;20024;-79
2021/03/15 12:15:25;;;;;;;0.35;0.20;;;25.10;30.60;;;;;;5066063;28;20412;-79
2021/03/15 12:17:51;;;;;;;0.63;0.30;;;25.10;30.50;;;;;;5086929;28;20040;-79
2021/03/15 12:20:17;;;;;;;0.40;0.38;;;25.10;30.50;;;;;;5080816;28;20535;-79
2021/03/15 12:22:42;;;;;;;0.20;0.10;;;25.10;30.50;;;;;;5089635;28;20028;-80
2021/03/15 12:25:08;;;;;;;2.30;0.38;;;25.10;30.40;;;;;;5093586;28;20384;-79
2021/03/15 12:27:34;;;;;;;3.03;0.32;;;25.10;30.40;;;;;;5072446;28;20055;-79
2021/03/15 12:30:00;;;;;;;0.20;0.20;;;25.10;30.40;;;;;;5089512;28;20059;-80
2021/03/15 12:32:26;;;;;;;4.03;0.47;;;25.10;30.40;;;;;;5088107;28;20043;-80
2021/03/15 12:34:52;;;;;;;0.10;0.10;;;25.20;31.00;;;;;;5099440;28;20044;-79
2021/03/15 12:37:19;;;;;;;2.55;0.13;;;25.10;30.90;;;;;;5071169;28;20113;-80
2021/03/15 12:39:47;;;;;;;1.45;0.38;;;25.10;30.20;;;;;;5073870;28;20050;-80
2021/03/15 12:42:13;;;;;;;0.40;0.28;;;25.10;30.30;;;;;;5089215;28;20548;-79
2021/03/15 12:44:39;;;;;;;0.10;0.10;;;25.10;30.30;;;;;;5087627;28;20410;-78
2021/03/15 12:47:04;;;;;;;0.20;0.17;;;25.10;30.30;;;;;;5092010;28;20103;-77
2021/03/15 12:49:30;;;;;;;0.10;0.10;;;25.10;30.30;;;;;;5091262;28;20031;-79
2021/03/15 12:52:05;;;;;;;1.10;0.25;;;25.10;30.30;;;;;;5088721;28;20107;-79
2021/03/15 12:54:31;;;;;;;0.75;0.43;;;25.10;30.30;;;;;;5072595;28;20039;-80
2021/03/15 12:56:57;;;;;;;0.10;0.10;;;25.00;30.20;;;;;;5090512;28;20028;-80
2021/03/15 12:59:23;;;;;;;0.73;0.38;;;25.00;30.30;;;;;;5073581;28;20563;-78
2021/03/15 13:01:49;;;;;;;0.43;0.20;;;24.90;30.30;;;;;;5071241;28;20074;-79
2021/03/15 13:04:14;;;;;;;0.20;0.20;;;24.90;30.30;;;;;;5090122;28;20056;-79
2021/03/15 13:06:40;;;;;;;0.00;0.00;;;24.90;30.40;;;;;;5087043;28;20031;-80
2021/03/15 13:09:06;;;;;;;0.43;0.43;;;24.90;30.40;;;;;;5089234;28;20024;-78
2021/03/15 13:11:31;;;;;;;0.20;0.20;;;24.90;30.40;;;;;;5087761;28;20024;-74
2021/03/15 13:14:03;;;;;;;1.02;0.20;;;24.90;30.30;;;;;;5089761;28;20116;-74
2021/03/15 13:16:29;;;;;;;0.55;0.32;;;25.00;30.40;;;;;;5055741;28;20048;-73